Time;durP1;ratioP1;P1;durP2;ratioP2;P2;SDS_P1;SDS_P2;PMS_P1;PMS_P2;Temp;Humidity;BMP_temperature;BMP_pressure;BME280_temperature;BME280_humidity;BME280_pressure;Samples;Min_cycle;Max_cycle;Signal;HPM_P1;HPM_P2
2020/12/23 00:01:46;;;;;;;;;;;;;;;;;;5048821;28;19939;-72
2020/12/23 00:04:12;;;;;;;;;;;;;;;;;;5049143;28;20431;-73
2020/12/23 00:06:38;;;;;;;;;;;;;;;;;;5047319;28;19952;-72
2020/12/23 00:09:04;;;;;;;;;;;;;;;;;;5049731;28;20512;-73
2020/12/23 00:11:29;;;;;;;;;;;;;;;;;;5050693;28;19967;-73
2020/12/23 00:13:55;;;;;;;;;;;;;;;;;;5047660;28;20386;-74
2020/12/23 00:16:21;;;;;;;;;;;;;;;;;;5050777;28;20295;-73
2020/12/23 00:18:47;;;;;;;;;;;;;;;;;;5047839;28;20323;-74
2020/12/23 00:21:13;;;;;;;;;;;;;;;;;;5060956;28;20361;-74
2020/12/23 00:23:39;;;;;;;;;;;;;;;;;;5054528;28;19912;-74
2020/12/23 00:26:05;;;;;;;;;;;;;;;;;;5051859;28;19953;-74
2020/12/23 00:28:31;;;;;;;;;;;;;;;;;;5048958;28;19971;-74
2020/12/23 00:30:57;;;;;;;;;;;;;;;;;;5049298;28;20008;-74
2020/12/23 00:33:23;;;;;;;;;;;;;;;;;;5049727;28;19944;-73
2020/12/23 00:35:49;;;;;;;;;;;;;;;;;;5049592;28;19974;-74
2020/12/23 00:38:15;;;;;;;;;;;;;;;;;;5049958;28;19959;-74
2020/12/23 00:40:41;;;;;;;;;;;;;;;;;;5050705;28;19955;-73
2020/12/23 00:43:07;;;;;;;;;;;;;;;;;;5050964;28;19921;-74
2020/12/23 00:45:32;;;;;;;;;;;;;;;;;;5061608;28;19948;-74
2020/12/23 00:47:58;;;;;;;;;;;;;;;;;;5050045;28;19916;-74
2020/12/23 00:50:24;;;;;;;;;;;;;;;;;;5049150;28;19952;-74
2020/12/23 00:52:50;;;;;;;;;;;;;;;;;;5047149;28;19917;-75
2020/12/23 00:55:16;;;;;;;;;;;;;;;;;;5046562;28;19960;-74
2020/12/23 00:57:42;;;;;;;;;;;;;;;;;;5049128;28;19975;-74
2020/12/23 01:00:08;;;;;;;;;;;;;;;;;;5049509;28;19913;-74
2020/12/23 01:02:34;;;;;;;;;;;;;;;;;;5050323;28;20009;-74
2020/12/23 01:05:00;;;;;;;;;;;;;;;;;;5046114;28;20399;-74
2020/12/23 01:07:26;;;;;;;;;;;;;;;;;;5050506;28;19956;-75
2020/12/23 01:09:52;;;;;;;;;;;;;;;;;;5046799;28;19978;-74
2020/12/23 01:12:18;;;;;;;;;;;;;;;;;;5048552;28;19913;-74
2020/12/23 01:14:44;;;;;;;;;;;;;;;;;;5040972;28;19960;-74
2020/12/23 01:17:10;;;;;;;;;;;;;;;;;;5051588;28;19959;-74
2020/12/23 01:19:35;;;;;;;;;;;;;;;;;;5049088;28;20055;-74
2020/12/23 01:22:01;;;;;;;;;;;;;;;;;;5048433;28;19956;-74
2020/12/23 01:24:27;;;;;;;;;;;;;;;;;;5047143;28;20006;-74
2020/12/23 01:26:53;;;;;;;;;;;;;;;;;;5050759;28;19912;-74
2020/12/23 01:29:19;;;;;;;;;;;;;;;;;;5047218;28;19960;-74
2020/12/23 01:31:45;;;;;;;;;;;;;;;;;;5049776;28;19960;-73
2020/12/23 01:34:11;;;;;;;;;;;;;;;;;;5051725;28;19951;-73
2020/12/23 01:36:37;;;;;;;;;;;;;;;;;;5061525;28;20401;-73
2020/12/23 01:39:03;;;;;;;;;;;;;;;;;;5055700;28;19959;-74
2020/12/23 01:41:29;;;;;;;;;;;;;;;;;;5058993;28;19912;-75
2020/12/23 01:43:55;;;;;;;;;;;;;;;;;;5060438;28;19913;-75
2020/12/23 01:46:21;;;;;;;;;;;;;;;;;;5053118;28;19913;-75
2020/12/23 01:48:47;;;;;;;;;;;;;;;;;;5042028;28;19913;-75
2020/12/23 01:51:13;;;;;;;;;;;;;;;;;;5045848;28;19967;-75
2020/12/23 01:53:39;;;;;;;;;;;;;;;;;;5047192;28;19993;-76
2020/12/23 01:56:05;;;;;;;;;;;;;;;;;;5048412;28;19956;-75
2020/12/23 01:58:31;;;;;;;;;;;;;;;;;;5049305;28;19976;-73
2020/12/23 02:00:57;;;;;;;;;;;;;;;;;;5045779;28;19967;-74
2020/12/23 02:03:22;;;;;;;;;;;;;;;;;;5047692;28;19944;-73
2020/12/23 02:05:48;;;;;;;;;;;;;;;;;;5065043;28;19956;-76
2020/12/23 02:08:14;;;;;;;;;;;;;;;;;;5048270;28;20051;-75
2020/12/23 02:10:40;;;;;;;;;;;;;;;;;;5048693;28;19967;-75
2020/12/23 02:13:06;;;;;;;;;;;;;;;;;;5049321;28;19919;-75
2020/12/23 02:15:32;;;;;;;;;;;;;;;;;;5042845;28;19917;-73
2020/12/23 02:17:58;;;;;;;;;;;;;;;;;;5043336;28;19979;-75
2020/12/23 02:20:24;;;;;;;;;;;;;;;;;;5058963;28;19952;-75
2020/12/23 02:22:51;;;;;;;;;;;;;;;;;;5048611;28;19917;-75
2020/12/23 02:25:17;;;;;;;;;;;;;;;;;;5047606;28;19932;-75
2020/12/23 02:27:43;;;;;;;;;;;;;;;;;;5053142;28;19913;-75
2020/12/23 02:30:09;;;;;;;;;;;;;;;;;;5048104;28;19939;-75
2020/12/23 02:32:35;;;;;;;;;;;;;;;;;;5049521;28;19955;-75
2020/12/23 02:35:01;;;;;;;;;;;;;;;;;;5047029;28;19919;-75
2020/12/23 02:37:27;;;;;;;;;;;;;;;;;;5048087;28;19913;-75
2020/12/23 02:39:53;;;;;;;;;;;;;;;;;;5045565;28;19912;-75
2020/12/23 02:42:18;;;;;;;;;;;;;;;;;;5048159;28;19952;-75
2020/12/23 02:44:45;;;;;;;;;;;;;;;;;;5048196;28;19964;-75
2020/12/23 02:47:11;;;;;;;;;;;;;;;;;;5047358;28;20321;-75
2020/12/23 02:49:37;;;;;;;;;;;;;;;;;;5054556;28;20005;-75
2020/12/23 02:52:03;;;;;;;;;;;;;;;;;;5054153;28;19951;-74
2020/12/23 02:54:29;;;;;;;;;;;;;;;;;;5060450;28;19912;-75
2020/12/23 02:56:55;;;;;;;;;;;;;;;;;;5053917;28;20375;-75
2020/12/23 02:59:20;;;;;;;;;;;;;;;;;;5054774;28;19935;-74
2020/12/23 03:01:46;;;;;;;;;;;;;;;;;;5055582;28;19916;-75
2020/12/23 03:04:12;;;;;;;;;;;;;;;;;;5056119;28;19912;-75
2020/12/23 03:06:38;;;;;;;;;;;;;;;;;;5062196;28;19908;-75
2020/12/23 03:09:04;;;;;;;;;;;;;;;;;;5050332;28;19971;-75
2020/12/23 03:11:30;;;;;;;;;;;;;;;;;;5050587;28;19917;-75
2020/12/23 03:13:56;;;;;;;;;;;;;;;;;;5053779;28;19924;-75
2020/12/23 03:16:22;;;;;;;;;;;;;;;;;;5056756;28;19917;-75
2020/12/23 03:18:48;;;;;;;;;;;;;;;;;;5051497;28;20002;-75
2020/12/23 03:21:14;;;;;;;;;;;;;;;;;;5059617;28;20455;-75
2020/12/23 03:23:40;;;;;;;;;;;;;;;;;;5052253;28;19960;-75
2020/12/23 03:26:06;;;;;;;;;;;;;;;;;;5052127;28;19960;-74
2020/12/23 03:28:32;;;;;;;;;;;;;;;;;;5049909;28;19961;-75
2020/12/23 03:30:57;;;;;;;;;;;;;;;;;;5049929;28;19956;-75
2020/12/23 03:33:23;;;;;;;;;;;;;;;;;;5051582;28;19916;-75
2020/12/23 03:35:49;;;;;;;;;;;;;;;;;;5060519;28;20297;-75
2020/12/23 03:38:15;;;;;;;;;;;;;;;;;;5048060;28;20571;-75
2020/12/23 03:40:41;;;;;;;;;;;;;;;;;;5045817;28;19948;-75
2020/12/23 03:43:07;;;;;;;;;;;;;;;;;;5048861;28;19955;-75
2020/12/23 03:45:33;;;;;;;;;;;;;;;;;;5051703;28;19956;-75
2020/12/23 03:47:59;;;;;;;;;;;;;;;;;;5048268;28;19944;-76
2020/12/23 03:50:25;;;;;;;;;;;;;;;;;;5046933;28;19979;-75
2020/12/23 03:52:51;;;;;;;;;;;;;;;;;;5050391;28;19975;-75
2020/12/23 03:55:17;;;;;;;;;;;;;;;;;;5048876;28;20004;-75
2020/12/23 03:57:42;;;;;;;;;;;;;;;;;;5050490;28;20405;-75
2020/12/23 04:00:08;;;;;;;;;;;;;;;;;;5050871;28;19936;-75
2020/12/23 04:02:34;;;;;;;;;;;;;;;;;;5050856;28;20453;-75
2020/12/23 04:05:00;;;;;;;;;;;;;;;;;;5052374;28;20413;-75
2020/12/23 04:07:26;;;;;;;;;;;;;;;;;;5068207;28;20334;-74
2020/12/23 04:09:52;;;;;;;;;;;;;;;;;;5049688;28;19948;-75
2020/12/23 04:12:18;;;;;;;;;;;;;;;;;;5047768;28;19956;-75
2020/12/23 04:14:44;;;;;;;;;;;;;;;;;;5049126;28;19928;-74
2020/12/23 04:17:10;;;;;;;;;;;;;;;;;;5050174;28;19944;-75
2020/12/23 04:19:36;;;;;;;;;;;;;;;;;;5049046;28;19986;-75
2020/12/23 04:22:02;;;;;;;;;;;;;;;;;;5049884;28;19912;-75
2020/12/23 04:24:28;;;;;;;;;;;;;;;;;;5050145;28;19948;-75
2020/12/23 04:26:54;;;;;;;;;;;;;;;;;;5049629;28;20383;-75
2020/12/23 04:29:19;;;;;;;;;;;;;;;;;;5048930;28;21635;-75
2020/12/23 04:31:45;;;;;;;;;;;;;;;;;;5049478;28;20377;-75
2020/12/23 04:34:11;;;;;;;;;;;;;;;;;;5051089;28;19921;-75
2020/12/23 04:36:37;;;;;;;;;;;;;;;;;;5054092;28;19971;-75
2020/12/23 04:39:03;;;;;;;;;;;;;;;;;;5050578;28;20440;-75
2020/12/23 04:41:29;;;;;;;;;;;;;;;;;;5048333;28;20402;-74
2020/12/23 04:43:55;;;;;;;;;;;;;;;;;;5049860;28;20855;-74
2020/12/23 04:46:21;;;;;;;;;;;;;;;;;;5048017;28;19999;-75
2020/12/23 04:48:47;;;;;;;;;;;;;;;;;;5049227;28;19955;-75
2020/12/23 04:51:13;;;;;;;;;;;;;;;;;;5051195;28;19952;-74
2020/12/23 04:53:39;;;;;;;;;;;;;;;;;;5057868;28;19920;-75
2020/12/23 04:56:05;;;;;;;;;;;;;;;;;;5050304;28;19913;-75
2020/12/23 04:58:31;;;;;;;;;;;;;;;;;;5043506;28;19963;-74
2020/12/23 05:00:56;;;;;;;;;;;;;;;;;;5048962;28;19955;-75
2020/12/23 05:03:22;;;;;;;;;;;;;;;;;;5044888;28;20062;-75
2020/12/23 05:05:48;;;;;;;;;;;;;;;;;;5050201;28;20043;-75
2020/12/23 05:08:14;;;;;;;;;;;;;;;;;;5047830;28;19962;-74
2020/12/23 05:10:40;;;;;;;;;;;;;;;;;;5048547;28;19971;-75
2020/12/23 05:13:06;;;;;;;;;;;;;;;;;;5056118;28;20460;-74
2020/12/23 05:15:32;;;;;;;;;;;;;;;;;;5052797;28;19917;-75
2020/12/23 05:17:58;;;;;;;;;;;;;;;;;;5058163;28;19948;-75
2020/12/23 05:20:24;;;;;;;;;;;;;;;;;;5055759;28;20020;-75
2020/12/23 09:57:26;;;;;;;;;;;;;;;;;;5040867;28;19983;-74
2020/12/23 09:59:51;;;;;;;;;;;;;;;;;;5051393;28;20387;-75
2020/12/23 10:02:17;;;;;;;;;;;;;;;;;;5034112;28;20581;-75
2020/12/23 10:04:43;;;;;;;;;;;;;;;;;;5056465;28;19948;-75
2020/12/23 10:07:10;;;;;;;;;;;;;;;;;;5053763;28;19909;-74
2020/12/23 10:09:36;;;;;;;;;;;;;;;;;;5043305;28;19912;-75
2020/12/23 10:12:02;;;;;;;;;;;;;;;;;;5053808;28;19976;-75
2020/12/23 10:14:27;;;;;;;;;;;;;;;;;;5065981;28;19909;-74
2020/12/23 10:16:53;;;;;;;;;;;;;;;;;;5036060;28;19912;-74
2020/12/23 10:19:19;;;;;;;;;;;;;;;;;;5038144;28;19944;-75
2020/12/23 10:21:45;;;;;;;;;;;;;;;;;;5042348;28;19909;-76
2020/12/23 10:24:11;;;;;;;;;;;;;;;;;;5036516;28;19974;-75
2020/12/23 10:26:37;;;;;;;;;;;;;;;;;;5037770;28;19955;-75
2020/12/23 10:29:04;;;;;;;;;;;;;;;;;;5054838;28;19921;-75
2020/12/23 10:31:30;;;;;;;;;;;;;;;;;;5053644;28;19987;-75
2020/12/23 10:33:56;;;;;;;;;;;;;;;;;;5056276;28;19948;-74
2020/12/23 10:36:23;;;;;;;;;;;;;;;;;;5062320;28;19916;-74
2020/12/23 10:38:50;;;;;;;;;;;;;;;;;;5058477;28;20011;-74
2020/12/23 10:41:16;;;;;;;;;;;;;;;;;;5062133;28;19909;-75
2020/12/23 10:43:42;;;;;;;;;;;;;;;;;;5060305;28;19936;-74
2020/12/23 10:46:11;;;;;;;;;;;;;;;;;;5053578;28;19935;-75
2020/12/23 10:48:37;;;;;;;;;;;;;;;;;;5036723;28;19989;-75
2020/12/23 10:51:04;;;;;;;;;;;;;;;;;;5037328;28;19952;-75
2020/12/23 10:53:29;;;;;;;;;;;;;;;;;;5033275;28;19917;-74
2020/12/23 10:55:55;;;;;;;;;;;;;;;;;;5051928;28;20325;-75
2020/12/23 10:58:21;;;;;;;;;;;;;;;;;;5062137;28;19917;-74
2020/12/23 11:00:47;;;;;;;;;;;;;;;;;;5061240;28;19959;-74
2020/12/23 11:03:13;;;;;;;;;;;;;;;;;;5051391;28;19917;-74
2020/12/23 11:05:39;;;;;;;;;;;;;;;;;;5036107;28;19956;-74
2020/12/23 11:08:05;;;;;;;;;;;;;;;;;;5035019;28;20014;-75
2020/12/23 11:10:31;;;;;;;;;;;;;;;;;;5035958;28;19966;-75
2020/12/23 11:12:57;;;;;;;;;;;;;;;;;;5051402;28;19967;-74
2020/12/23 11:15:23;;;;;;;;;;;;;;;;;;5027884;28;20205;-74
2020/12/23 11:17:49;;;;;;;;;;;;;;;;;;5028440;28;19955;-75
2020/12/23 11:20:15;;;;;;;;;;;;;;;;;;5020550;28;19945;-75
2020/12/23 11:22:41;;;;;;;;;;;;;;;;;;5039641;28;19955;-75
2020/12/23 11:25:06;;;;;;;;;;;;;;;;;;5037861;28;19959;-76
2020/12/23 11:27:32;;;;;;;;;;;;;;;;;;5031588;28;19949;-77
2020/12/23 11:29:58;;;;;;;;;;;;;;;;;;5050838;28;20343;-77
2020/12/23 11:32:24;;;;;;;;;;;;;;;;;;5048890;28;19952;-77
2020/12/23 11:34:50;;;;;;;;;;;;;;;;;;5048149;28;19959;-76
2020/12/23 11:37:16;;;;;;;;;;;;;;;;;;5033084;28;19960;-76
2020/12/23 11:39:42;;;;;;;;;;;;;;;;;;5049515;28;19955;-75
2020/12/23 11:42:08;;;;;;;;;;;;;;;;;;5050893;28;19952;-75
2020/12/23 11:44:34;;;;;;;;;;;;;;;;;;5054275;28;19947;-75
2020/12/23 11:47:00;;;;;;;;;;;;;;;;;;5037894;28;19913;-74
2020/12/23 11:49:26;;;;;;;;;;;;;;;;;;5054112;28;19912;-75
2020/12/23 11:51:52;;;;;;;;;;;;;;;;;;5054029;28;19950;-75
2020/12/23 11:54:22;;;;;;;;;;;;;;;;;;5041376;28;19940;-75
2020/12/23 11:56:50;;;;;;;;;;;;;;;;;;5061173;28;20339;-74
2020/12/23 11:59:16;;;;;;;;;;;;;;;;;;5054504;28;19917;-77
2020/12/23 12:01:41;;;;;;;;;;;;;;;;;;5054331;28;19913;-76
2020/12/23 12:04:07;;;;;;;;;;;;;;;;;;5050032;28;19913;-75
2020/12/23 12:06:33;;;;;;;;;;;;;;;;;;5055348;28;19924;-76
2020/12/23 12:08:59;;;;;;;;;;;;;;;;;;5055753;28;19991;-75
2020/12/23 12:11:26;;;;;;;;;;;;;;;;;;5055187;28;19959;-76
2020/12/23 12:13:52;;;;;;;;;;;;;;;;;;5056219;28;19909;-78
2020/12/23 12:16:18;;;;;;;;;;;;;;;;;;5038639;28;19919;-77
2020/12/23 12:18:44;;;;;;;;;;;;;;;;;;5056786;28;20525;-78
2020/12/23 12:21:10;;;;;;;;;;;;;;;;;;5058449;28;20123;-81
2020/12/23 12:23:36;;;;;;;;;;;;;;;;;;5045677;28;20402;-79
2020/12/23 12:26:02;;;;;;;;;;;;;;;;;;5041750;28;19909;-79
2020/12/23 12:28:28;;;;;;;;;;;;;;;;;;5058036;28;19920;-76
2020/12/23 12:30:54;;;;;;;;;;;;;;;;;;5057599;28;19928;-76
2020/12/23 12:33:20;;;;;;;;;;;;;;;;;;5054679;28;19908;-76
2020/12/23 12:35:46;;;;;;;;;;;;;;;;;;5060901;28;20302;-74
2020/12/23 12:38:12;;;;;;;;;;;;;;;;;;5042191;28;19935;-74
2020/12/23 12:40:38;;;;;;;;;;;;;;;;;;5056392;28;19909;-75
2020/12/23 12:43:05;;;;;;;;;;;;;;;;;;5046458;28;19978;-77
2020/12/23 12:45:31;;;;;;;;;;;;;;;;;;5034823;28;19999;-76
2020/12/23 12:47:57;;;;;;;;;;;;;;;;;;5050536;28;19913;-76
2020/12/23 12:50:23;;;;;;;;;;;;;;;;;;5033558;28;20015;-76
2020/12/23 12:52:49;;;;;;;;;;;;;;;;;;5049456;28;20340;-77
2020/12/23 12:55:15;;;;;;;;;;;;;;;;;;5050597;28;19919;-77
2020/12/23 12:57:43;;;;;;;;;;;;;;;;;;5050437;28;19956;-76
2020/12/23 13:00:09;;;;;;;;;;;;;;;;;;5049397;28;20395;-76
2020/12/23 13:02:35;;;;;;;;;;;;;;;;;;5051607;28;19956;-76
2020/12/23 13:05:01;;;;;;;;;;;;;;;;;;5033278;28;19921;-77
2020/12/23 13:07:27;;;;;;;;;;;;;;;;;;5046135;28;20003;-75
2020/12/23 13:09:53;;;;;;;;;;;;;;;;;;5032057;28;20036;-75
2020/12/23 13:12:19;;;;;;;;;;;;;;;;;;5029464;28;21191;-76
2020/12/23 13:14:45;;;;;;;;;;;;;;;;;;5034237;28;19947;-75
2020/12/23 13:17:11;;;;;;;;;;;;;;;;;;5052724;28;19913;-75
2020/12/23 13:19:37;;;;;;;;;;;;;;;;;;5040152;28;19959;-75
2020/12/23 13:22:03;;;;;;;;;;;;;;;;;;5065836;28;20280;-75
2020/12/23 13:24:29;;;;;;;;;;;;;;;;;;5065293;28;20381;-75
2020/12/23 13:26:55;;;;;;;;;;;;;;;;;;5047734;28;19966;-76
2020/12/23 13:29:21;;;;;;;;;;;;;;;;;;5050320;28;19938;-74
2020/12/23 13:31:47;;;;;;;;;;;;;;;;;;5075984;28;19916;-75
2020/12/23 13:34:13;;;;;;;;;;;;;;;;;;5052587;28;19963;-75
2020/12/23 13:36:39;;;;;;;;;;;;;;;;;;5062929;28;20019;-75
2020/12/23 13:39:04;;;;;;;;;;;;;;;;;;5058805;28;19963;-74
2020/12/23 13:41:31;;;;;;;;;;;;;;;;;;5051039;28;20339;-75
2020/12/23 13:43:57;;;;;;;;;;;;;;;;;;5055051;28;20310;-75
2020/12/23 13:46:22;;;;;;;;;;;;;;;;;;5051585;28;19994;-75
2020/12/23 13:48:48;;;;;;;;;;;;;;;;;;5038886;28;19913;-76
2020/12/23 13:51:15;;;;;;;;;;;;;;;;;;5054750;28;19982;-74
2020/12/23 13:53:40;;;;;;;;;;;;;;;;;;5085708;28;19916;-74
2020/12/23 13:56:06;;;;;;;;;;;;;;;;;;5052231;28;19956;-74
2020/12/23 13:58:32;;;;;;;;;;;;;;;;;;5075113;28;19916;-74
2020/12/23 14:00:58;;;;;;;;;;;;;;;;;;5079451;28;19981;-74
2020/12/23 14:03:24;;;;;;;;;;;;;;;;;;5053431;28;20294;-74
2020/12/23 14:05:52;;;;;;;;;;;;;;;;;;5069648;28;19947;-74
2020/12/23 14:08:18;;;;;;;;;;;;;;;;;;5070627;28;19908;-74
2020/12/23 14:10:44;;;;;;;;;;;;;;;;;;5071436;28;19966;-74
2020/12/23 14:13:10;;;;;;;;;;;;;;;;;;5052696;28;20327;-75
2020/12/23 14:15:35;;;;;;;;;;;;;;;;;;5053385;28;19976;-74
2020/12/23 14:18:01;;;;;;;;;;;;;;;;;;5053179;28;19956;-74
2020/12/23 14:20:27;;;;;;;;;;;;;;;;;;5053102;28;19962;-74
2020/12/23 14:22:53;;;;;;;;;;;;;;;;;;5068784;28;19948;-74
2020/12/23 14:25:19;;;;;;;;;;;;;;;;;;5052973;28;19916;-74
2020/12/23 14:27:45;;;;;;;;;;;;;;;;;;5052874;28;20428;-75
2020/12/23 14:30:11;;;;;;;;;;;;;;;;;;5052999;28;19920;-74
2020/12/23 14:32:37;;;;;;;;;;;;;;;;;;5052412;28;19952;-74
2020/12/23 14:35:03;;;;;;;;;;;;;;;;;;5053071;28;19951;-74
2020/12/23 14:37:29;;;;;;;;;;;;;;;;;;5086540;28;19909;-74
2020/12/23 14:39:55;;;;;;;;;;;;;;;;;;5070796;28;19919;-74
2020/12/23 14:42:21;;;;;;;;;;;;;;;;;;5069889;28;19997;-74
2020/12/23 14:44:47;;;;;;;;;;;;;;;;;;5074795;28;20354;-74
2020/12/23 14:47:13;;;;;;;;;;;;;;;;;;5053359;28;20005;-74
2020/12/23 14:49:39;;;;;;;;;;;;;;;;;;5052639;28;19948;-74
2020/12/23 14:52:05;;;;;;;;;;;;;;;;;;5062505;28;19924;-75
2020/12/23 14:54:31;;;;;;;;;;;;;;;;;;5056916;28;19908;-75
2020/12/23 14:56:56;;;;;;;;;;;;;;;;;;5056607;28;19934;-75
2020/12/23 14:59:22;;;;;;;;;;;;;;;;;;5055578;28;19974;-74
2020/12/23 15:01:48;;;;;;;;;;;;;;;;;;5055292;28;19912;-74
2020/12/23 15:04:14;;;;;;;;;;;;;;;;;;5082255;28;19913;-74
2020/12/23 15:06:40;;;;;;;;;;;;;;;;;;5059172;28;19935;-74
2020/12/23 15:09:06;;;;;;;;;;;;;;;;;;5080760;28;20007;-74
2020/12/23 15:11:32;;;;;;;;;;;;;;;;;;5057261;28;19962;-75
2020/12/23 15:13:58;;;;;;;;;;;;;;;;;;5077508;28;19922;-74
2020/12/23 15:16:24;;;;;;;;;;;;;;;;;;5066220;28;20302;-75
2020/12/23 15:18:50;;;;;;;;;;;;;;;;;;5053809;28;20414;-74
2020/12/23 15:21:16;;;;;;;;;;;;;;;;;;5056033;28;20317;-75
2020/12/23 15:23:42;;;;;;;;;;;;;;;;;;5061661;28;19996;-74
2020/12/23 15:26:08;;;;;;;;;;;;;;;;;;5056632;28;19992;-74
2020/12/23 15:28:34;;;;;;;;;;;;;;;;;;5055226;28;20366;-74
2020/12/23 15:31:00;;;;;;;;;;;;;;;;;;5061491;28;20513;-74
2020/12/23 15:33:26;;;;;;;;;;;;;;;;;;5055475;28;20334;-74
2020/12/23 15:35:52;;;;;;;;;;;;;;;;;;5080758;28;19995;-74
2020/12/23 15:38:21;;;;;;;;;;;;;;;;;;5054385;28;19952;-75
2020/12/23 15:40:47;;;;;;;;;;;;;;;;;;5074056;28;19912;-74
2020/12/23 15:43:13;;;;;;;;;;;;;;;;;;5056129;28;19974;-74
2020/12/23 15:45:39;;;;;;;;;;;;;;;;;;5053032;28;19912;-74
2020/12/23 15:48:05;;;;;;;;;;;;;;;;;;5089774;28;19978;-74
2020/12/23 15:50:31;;;;;;;;;;;;;;;;;;5089461;28;19912;-74
2020/12/23 15:52:57;;;;;;;;;;;;;;;;;;5089393;28;19944;-74
2020/12/23 15:55:23;;;;;;;;;;;;;;;;;;5084036;28;19912;-74
2020/12/23 15:57:49;;;;;;;;;;;;;;;;;;5074182;28;19919;-74
2020/12/23 16:00:15;;;;;;;;;;;;;;;;;;5090437;28;19912;-75
2020/12/23 16:02:41;;;;;;;;;;;;;;;;;;5088222;28;19912;-74
2020/12/23 16:05:07;;;;;;;;;;;;;;;;;;5050501;28;20018;-75
2020/12/23 16:07:33;;;;;;;;;;;;;;;;;;5049991;28;20465;-74
2020/12/23 16:09:59;;;;;;;;;;;;;;;;;;5051883;28;19917;-74
2020/12/23 16:12:25;;;;;;;;;;;;;;;;;;5051813;28;20394;-74
2020/12/23 16:14:51;;;;;;;;;;;;;;;;;;5072561;28;19962;-74
2020/12/23 16:17:17;;;;;;;;;;;;;;;;;;5068700;28;20389;-75
2020/12/23 16:19:43;;;;;;;;;;;;;;;;;;5054419;28;19916;-75
2020/12/23 16:22:09;;;;;;;;;;;;;;;;;;5053074;28;19919;-75
2020/12/23 16:24:35;;;;;;;;;;;;;;;;;;5054082;28;19959;-75
2020/12/23 16:27:01;;;;;;;;;;;;;;;;;;5051286;28;19940;-75
2020/12/23 16:29:27;;;;;;;;;;;;;;;;;;5070353;28;19944;-76
2020/12/23 16:31:53;;;;;;;;;;;;;;;;;;5052714;28;19917;-75
2020/12/23 16:34:19;;;;;;;;;;;;;;;;;;5078202;28;19951;-76
2020/12/23 16:36:45;;;;;;;;;;;;;;;;;;5053321;28;19912;-76
2020/12/23 16:39:11;;;;;;;;;;;;;;;;;;5071177;28;20274;-76
2020/12/23 16:41:37;;;;;;;;;;;;;;;;;;5070486;28;19955;-76
2020/12/23 16:44:03;;;;;;;;;;;;;;;;;;5070608;28;20378;-76
2020/12/23 16:46:29;;;;;;;;;;;;;;;;;;5070551;28;19992;-75
2020/12/23 16:48:55;;;;;;;;;;;;;;;;;;5052231;28;20322;-76
2020/12/23 16:51:21;;;;;;;;;;;;;;;;;;5052923;28;19982;-75
2020/12/23 16:53:47;;;;;;;;;;;;;;;;;;5053149;28;19913;-75
2020/12/23 16:56:12;;;;;;;;;;;;;;;;;;5053863;28;20003;-76
2020/12/23 16:58:38;;;;;;;;;;;;;;;;;;5049984;28;20504;-75
2020/12/23 17:01:04;;;;;;;;;;;;;;;;;;5052682;28;19966;-75
2020/12/23 17:03:30;;;;;;;;;;;;;;;;;;5049672;28;19975;-75
2020/12/23 17:05:56;;;;;;;;;;;;;;;;;;5051175;28;19951;-74
2020/12/23 17:08:22;;;;;;;;;;;;;;;;;;5068665;28;19944;-75
2020/12/23 17:10:48;;;;;;;;;;;;;;;;;;5081578;28;19950;-75
2020/12/23 17:13:14;;;;;;;;;;;;;;;;;;5068077;28;19913;-76
2020/12/23 17:15:40;;;;;;;;;;;;;;;;;;5069669;28;19912;-75
2020/12/23 17:18:06;;;;;;;;;;;;;;;;;;5047884;28;19912;-75
2020/12/23 17:20:32;;;;;;;;;;;;;;;;;;5052204;28;19915;-75
2020/12/23 17:22:58;;;;;;;;;;;;;;;;;;5068995;28;19912;-75
2020/12/23 17:25:24;;;;;;;;;;;;;;;;;;5053321;28;19955;-75
2020/12/23 17:27:50;;;;;;;;;;;;;;;;;;5068379;28;19947;-76
2020/12/23 17:30:16;;;;;;;;;;;;;;;;;;5052073;28;19959;-76
2020/12/23 17:32:42;;;;;;;;;;;;;;;;;;5050336;28;20401;-76
2020/12/23 17:35:08;;;;;;;;;;;;;;;;;;5051651;28;19952;-76
2020/12/23 17:37:34;;;;;;;;;;;;;;;;;;5048054;28;19944;-76
2020/12/23 17:40:00;;;;;;;;;;;;;;;;;;5052051;28;19968;-75
2020/12/23 17:42:25;;;;;;;;;;;;;;;;;;5051165;28;20359;-75
2020/12/23 17:44:51;;;;;;;;;;;;;;;;;;5068686;28;19963;-76
2020/12/23 17:47:17;;;;;;;;;;;;;;;;;;5050325;28;20460;-76
2020/12/23 17:49:43;;;;;;;;;;;;;;;;;;5050748;28;20425;-76
2020/12/23 17:52:09;;;;;;;;;;;;;;;;;;5051595;28;20378;-76
2020/12/23 17:54:35;;;;;;;;;;;;;;;;;;5068878;28;19952;-76
2020/12/23 17:57:01;;;;;;;;;;;;;;;;;;5049872;28;19935;-76
2020/12/23 17:59:27;;;;;;;;;;;;;;;;;;5044032;28;19916;-76
2020/12/23 18:01:53;;;;;;;;;;;;;;;;;;5068575;28;19949;-76
2020/12/23 18:04:19;;;;;;;;;;;;;;;;;;5049783;28;19956;-76
2020/12/23 18:06:45;;;;;;;;;;;;;;;;;;5068341;28;19917;-77
2020/12/23 18:09:11;;;;;;;;;;;;;;;;;;5069718;28;20385;-77
2020/12/23 18:11:37;;;;;;;;;;;;;;;;;;5050820;28;19970;-77
2020/12/23 18:14:03;;;;;;;;;;;;;;;;;;5052265;28;19963;-77
2020/12/23 18:16:29;;;;;;;;;;;;;;;;;;5050703;28;19912;-77
2020/12/23 18:18:55;;;;;;;;;;;;;;;;;;5071905;28;19912;-77
2020/12/23 18:21:21;;;;;;;;;;;;;;;;;;5053148;28;19931;-77
2020/12/23 18:23:47;;;;;;;;;;;;;;;;;;5049968;28;19945;-77
2020/12/23 18:26:13;;;;;;;;;;;;;;;;;;5070590;28;19920;-77
2020/12/23 18:28:39;;;;;;;;;;;;;;;;;;5054140;28;19939;-77
2020/12/23 18:31:05;;;;;;;;;;;;;;;;;;5056193;28;19952;-78
2020/12/23 18:33:31;;;;;;;;;;;;;;;;;;5054647;28;20286;-78
2020/12/23 18:35:57;;;;;;;;;;;;;;;;;;5059223;28;19916;-77
2020/12/23 18:38:22;;;;;;;;;;;;;;;;;;5056685;28;19931;-77
2020/12/23 18:40:48;;;;;;;;;;;;;;;;;;5057904;28;20578;-77
2020/12/23 18:43:14;;;;;;;;;;;;;;;;;;5072959;28;19981;-77
2020/12/23 18:45:40;;;;;;;;;;;;;;;;;;5073720;28;19912;-78
2020/12/23 18:48:06;;;;;;;;;;;;;;;;;;5054779;28;19912;-77
2020/12/23 18:50:32;;;;;;;;;;;;;;;;;;5089325;28;19970;-77
2020/12/23 18:52:58;;;;;;;;;;;;;;;;;;5055334;28;19955;-76
2020/12/23 18:55:24;;;;;;;;;;;;;;;;;;5055782;28;19913;-78
2020/12/23 18:57:50;;;;;;;;;;;;;;;;;;5070092;28;19970;-77
2020/12/23 19:00:16;;;;;;;;;;;;;;;;;;5077531;28;20501;-78
2020/12/23 19:02:42;;;;;;;;;;;;;;;;;;5064802;28;19913;-79
2020/12/23 19:05:08;;;;;;;;;;;;;;;;;;5060400;28;20627;-78
2020/12/23 19:07:34;;;;;;;;;;;;;;;;;;5074191;28;20011;-78
2020/12/23 19:10:06;;;;;;;;;;;;;;;;;;5071795;28;19955;-76
2020/12/23 19:12:32;;;;;;;;;;;;;;;;;;5048021;28;19912;-78
2020/12/23 19:14:58;;;;;;;;;;;;;;;;;;5075580;28;19912;-78
2020/12/23 19:17:24;;;;;;;;;;;;;;;;;;5053421;28;19917;-77
2020/12/23 19:19:50;;;;;;;;;;;;;;;;;;5060068;28;19920;-78
2020/12/23 19:22:15;;;;;;;;;;;;;;;;;;5061774;28;19912;-77
2020/12/23 19:24:41;;;;;;;;;;;;;;;;;;5059380;28;19987;-75
2020/12/23 19:27:07;;;;;;;;;;;;;;;;;;5054898;28;20013;-77
2020/12/23 19:29:33;;;;;;;;;;;;;;;;;;5055849;28;19912;-77
2020/12/23 19:31:59;;;;;;;;;;;;;;;;;;5054764;28;19916;-78
2020/12/23 19:34:25;;;;;;;;;;;;;;;;;;5059826;28;19943;-77
2020/12/23 19:36:51;;;;;;;;;;;;;;;;;;5071315;28;19947;-77
2020/12/23 19:39:17;;;;;;;;;;;;;;;;;;5055674;28;19920;-78
2020/12/23 19:41:43;;;;;;;;;;;;;;;;;;5079391;28;19916;-78
2020/12/23 19:44:09;;;;;;;;;;;;;;;;;;5063827;28;19920;-77
2020/12/23 19:46:35;;;;;;;;;;;;;;;;;;5056290;28;19920;-78
2020/12/23 19:49:01;;;;;;;;;;;;;;;;;;5055297;28;19919;-77
2020/12/23 19:51:26;;;;;;;;;;;;;;;;;;5043287;22;20359;-71
2020/12/23 19:53:52;;;;;;;;;;;;;;;;;;5041920;28;20372;-71
2020/12/23 19:56:18;;;;;;;;;;;;;;;;;;5051818;28;19985;-70
2020/12/23 19:58:44;;;;;;;;;;;;;;;;;;5052220;28;20027;-70
2020/12/23 20:01:10;;;;;;;;;;;;;;;;;;5026792;28;19905;-71
2020/12/23 20:03:36;;;;;;;;;;;;;;;;;;5049461;28;20018;-72
2020/12/23 20:06:02;;;;;;;;;;;;;;;;;;5051118;28;19940;-69
2020/12/23 20:08:28;;;;;;;;;;;;;;;;;;5048750;28;19947;-69
2020/12/23 20:10:54;;;;;;;;;;;;;;;;;;5050810;28;20311;-70
2020/12/23 20:13:20;;;;;;;;;;;;;;;;;;5049556;28;20033;-68
2020/12/23 20:15:46;;;;;;;;;;;;;;;;;;5044932;28;20003;-69
2020/12/23 20:18:12;;;;;;;;;;;;;;;;;;5051711;28;19999;-69
2020/12/23 20:20:37;;;;;;;;;;;;;;;;;;5051138;28;19990;-70
2020/12/23 20:23:03;;;;;;;;;;;;;;;;;;5047558;28;19927;-70
2020/12/23 20:25:29;;;;;;;;;;;;;;;;;;5051413;28;19999;-69
2020/12/23 20:27:55;;;;;;;;;;;;;;;;;;5050714;28;20003;-70
2020/12/23 20:30:21;;;;;;;;;;;;;;;;;;5050778;28;20428;-70
2020/12/23 20:32:47;;;;;;;;;;;;;;;;;;5050373;28;19912;-69
2020/12/23 20:35:13;;;;;;;;;;;;;;;;;;5044062;28;19948;-69
2020/12/23 20:37:39;;;;;;;;;;;;;;;;;;5048481;28;20442;-69
2020/12/23 20:40:05;;;;;;;;;;;;;;;;;;5033970;28;19913;-68
2020/12/23 20:42:31;;;;;;;;;;;;;;;;;;5049076;28;20008;-69
2020/12/23 20:44:57;;;;;;;;;;;;;;;;;;5032425;28;19909;-71
2020/12/23 20:47:23;;;;;;;;;;;;;;;;;;5049880;28;19976;-71
2020/12/23 20:49:49;;;;;;;;;;;;;;;;;;5052080;28;19967;-71
2020/12/23 20:52:14;;;;;;;;;;;;;;;;;;5051808;28;19916;-71
2020/12/23 20:54:40;;;;;;;;;;;;;;;;;;5051409;28;20420;-70
2020/12/23 20:57:06;;;;;;;;;;;;;;;;;;5032903;28;20062;-69
2020/12/23 20:59:32;;;;;;;;;;;;;;;;;;5051680;28;19916;-71
2020/12/23 21:01:58;;;;;;;;;;;;;;;;;;5051763;28;19963;-70
2020/12/23 21:04:24;;;;;;;;;;;;;;;;;;5043898;28;20360;-69
2020/12/23 21:06:50;;;;;;;;;;;;;;;;;;5033652;28;19914;-70
2020/12/23 21:09:16;;;;;;;;;;;;;;;;;;5049463;28;20331;-70
2020/12/23 21:11:42;;;;;;;;;;;;;;;;;;5050475;28;20006;-71